sensor_id;sensor_type;location;lat;lon;timestamp;pressure;altitude;pressure_sealevel;temperature;humidity
4024;BME280;2026;51.002;13.668;2023-04-02T00:00:16;98113.59;;;7.93;100.00
4024;BME280;2026;51.002;13.668;2023-04-02T00:05:49;98126.34;;;8.02;100.00
4024;BME280;2026;51.002;13.668;2023-04-02T00:10:54;98140.56;;;7.87;100.00
4024;BME280;2026;51.002;13.668;2023-04-02T00:16:00;98141.44;;;7.81;100.00
4024;BME280;2026;51.002;13.668;2023-04-02T00:21:10;98152.44;;;7.64;100.00
4024;BME280;2026;51.002;13.668;2023-04-02T00:26:22;98170.44;;;7.72;100.00
4024;BME280;2026;51.002;13.668;2023-04-02T00:31:28;98168.44;;;7.17;100.00
4024;BME280;2026;51.002;13.668;2023-04-02T00:36:33;98180.41;;;7.25;100.00
4024;BME280;2026;51.002;13.668;2023-04-02T00:41:36;98193.50;;;6.79;100.00
4024;BME280;2026;51.002;13.668;2023-04-02T00:46:42;98192.03;;;6.90;100.00
4024;BME280;2026;51.002;13.668;2023-04-02T00:51:52;98206.78;;;7.10;100.00
4024;BME280;2026;51.002;13.668;2023-04-02T00:56:56;98207.94;;;6.75;100.00
4024;BME280;2026;51.002;13.668;2023-04-02T01:02:20;98217.53;;;6.81;100.00
4024;BME280;2026;51.002;13.668;2023-04-02T01:07:43;98227.22;;;6.67;100.00
4024;BME280;2026;51.002;13.668;2023-04-02T01:12:55;98244.63;;;6.67;100.00
4024;BME280;2026;51.002;13.668;2023-04-02T01:18:09;98251.28;;;6.56;100.00
4024;BME280;2026;51.002;13.668;2023-04-02T01:23:23;98253.13;;;6.35;100.00
4024;BME280;2026;51.002;13.668;2023-04-02T01:28:41;98254.56;;;6.17;100.00
4024;BME280;2026;51.002;13.668;2023-04-02T01:33:47;98265.41;;;5.94;100.00
4024;BME280;2026;51.002;13.668;2023-04-02T01:38:56;98266.00;;;5.96;100.00
4024;BME280;2026;51.002;13.668;2023-04-02T01:44:06;98285.44;;;6.00;100.00
4024;BME280;2026;51.002;13.668;2023-04-02T01:49:11;98299.81;;;5.96;100.00
4024;BME280;2026;51.002;13.668;2023-04-02T01:54:16;98309.81;;;5.72;100.00
4024;BME280;2026;51.002;13.668;2023-04-02T01:59:21;98316.59;;;5.73;100.00
4024;BME280;2026;51.002;13.668;2023-04-02T02:04:30;98330.63;;;5.72;100.00
4024;BME280;2026;51.002;13.668;2023-04-02T02:09:34;98334.25;;;5.91;100.00
4024;BME280;2026;51.002;13.668;2023-04-02T02:14:45;98351.38;;;5.52;100.00
4024;BME280;2026;51.002;13.668;2023-04-02T02:19:51;98358.72;;;5.35;100.00
4024;BME280;2026;51.002;13.668;2023-04-02T02:24:56;98358.50;;;5.30;100.00
4024;BME280;2026;51.002;13.668;2023-04-02T02:30:05;98372.88;;;5.19;100.00
4024;BME280;2026;51.002;13.668;2023-04-02T02:35:17;98390.13;;;4.98;100.00
4024;BME280;2026;51.002;13.668;2023-04-02T02:40:26;98392.41;;;5.08;100.00
4024;BME280;2026;51.002;13.668;2023-04-02T02:45:36;98399.50;;;4.92;100.00
4024;BME280;2026;51.002;13.668;2023-04-02T02:50:40;98414.06;;;5.29;100.00
4024;BME280;2026;51.002;13.668;2023-04-02T02:55:46;98426.09;;;4.94;100.00
4024;BME280;2026;51.002;13.668;2023-04-02T03:00:57;98428.66;;;5.30;100.00
4024;BME280;2026;51.002;13.668;2023-04-02T03:06:03;98434.69;;;4.95;100.00
4024;BME280;2026;51.002;13.668;2023-04-02T03:11:11;98441.91;;;5.00;100.00
4024;BME280;2026;51.002;13.668;2023-04-02T03:16:25;98447.81;;;4.87;100.00
4024;BME280;2026;51.002;13.668;2023-04-02T03:21:35;98474.88;;;4.70;100.00
4024;BME280;2026;51.002;13.668;2023-04-02T03:26:45;98472.97;;;4.57;100.00
4024;BME280;2026;51.002;13.668;2023-04-02T03:31:55;98489.16;;;4.60;100.00
4024;BME280;2026;51.002;13.668;2023-04-02T03:37:07;98499.00;;;4.64;100.00
4024;BME280;2026;51.002;13.668;2023-04-02T03:42:17;98515.56;;;4.63;100.00
4024;BME280;2026;51.002;13.668;2023-04-02T03:47:29;98534.94;;;4.24;100.00
4024;BME280;2026;51.002;13.668;2023-04-02T03:52:37;98529.75;;;4.24;100.00
4024;BME280;2026;51.002;13.668;2023-04-02T03:57:51;98548.47;;;4.19;100.00
4024;BME280;2026;51.002;13.668;2023-04-02T04:03:04;98558.50;;;4.07;100.00
4024;BME280;2026;51.002;13.668;2023-04-02T04:08:15;98570.50;;;4.08;100.00
4024;BME280;2026;51.002;13.668;2023-04-02T04:13:23;98583.50;;;3.93;100.00
4024;BME280;2026;51.002;13.668;2023-04-02T04:18:32;98596.47;;;3.93;100.00
4024;BME280;2026;51.002;13.668;2023-04-02T04:23:49;98616.09;;;3.87;100.00
4024;BME280;2026;51.002;13.668;2023-04-02T04:29:03;98624.16;;;3.93;100.00
4024;BME280;2026;51.002;13.668;2023-04-02T04:34:16;98628.91;;;3.74;100.00
4024;BME280;2026;51.002;13.668;2023-04-02T04:39:25;98632.03;;;3.84;100.00
4024;BME280;2026;51.002;13.668;2023-04-02T04:44:38;98644.03;;;4.15;100.00
4024;BME280;2026;51.002;13.668;2023-04-02T04:49:46;98660.22;;;4.18;100.00
4024;BME280;2026;51.002;13.668;2023-04-02T04:54:55;98664.84;;;3.77;100.00
4024;BME280;2026;51.002;13.668;2023-04-02T05:00:05;98697.09;;;3.59;100.00
4024;BME280;2026;51.002;13.668;2023-04-02T05:05:18;98691.97;;;3.28;100.00
4024;BME280;2026;51.002;13.668;2023-04-02T05:10:30;98713.97;;;3.55;100.00
4024;BME280;2026;51.002;13.668;2023-04-02T05:15:39;98720.94;;;3.31;100.00
4024;BME280;2026;51.002;13.668;2023-04-02T05:20:49;98728.31;;;3.19;100.00
4024;BME280;2026;51.002;13.668;2023-04-02T05:25:59;98754.31;;;3.26;100.00
4024;BME280;2026;51.002;13.668;2023-04-02T05:31:06;98751.09;;;3.24;100.00
4024;BME280;2026;51.002;13.668;2023-04-02T05:36:21;98769.38;;;2.99;100.00
4024;BME280;2026;51.002;13.668;2023-04-02T05:41:31;98769.66;;;3.36;100.00
4024;BME280;2026;51.002;13.668;2023-04-02T05:46:44;98784.31;;;3.52;100.00
4024;BME280;2026;51.002;13.668;2023-04-02T05:51:52;98790.06;;;3.39;100.00
4024;BME280;2026;51.002;13.668;2023-04-02T05:57:01;98812.56;;;3.39;100.00
4024;BME280;2026;51.002;13.668;2023-04-02T06:02:16;98819.44;;;2.91;100.00
4024;BME280;2026;51.002;13.668;2023-04-02T06:07:27;98824.06;;;3.04;100.00
4024;BME280;2026;51.002;13.668;2023-04-02T06:12:37;98838.59;;;3.14;100.00
4024;BME280;2026;51.002;13.668;2023-04-02T06:17:45;98851.69;;;2.72;100.00
4024;BME280;2026;51.002;13.668;2023-04-02T06:22:52;98857.78;;;2.96;100.00
4024;BME280;2026;51.002;13.668;2023-04-02T06:28:00;98876.53;;;2.98;100.00
4024;BME280;2026;51.002;13.668;2023-04-02T06:33:05;98875.97;;;3.19;100.00
4024;BME280;2026;51.002;13.668;2023-04-02T06:38:18;98885.94;;;2.99;100.00
4024;BME280;2026;51.002;13.668;2023-04-02T06:43:26;98899.19;;;3.04;100.00
4024;BME280;2026;51.002;13.668;2023-04-02T06:48:55;98913.16;;;2.78;100.00
4024;BME280;2026;51.002;13.668;2023-04-02T06:54:02;98918.19;;;2.55;100.00
4024;BME280;2026;51.002;13.668;2023-04-02T06:59:05;98928.38;;;2.82;100.00
4024;BME280;2026;51.002;13.668;2023-04-02T07:04:09;98943.59;;;2.68;100.00
4024;BME280;2026;51.002;13.668;2023-04-02T07:09:19;98953.31;;;2.74;100.00
4024;BME280;2026;51.002;13.668;2023-04-02T07:14:27;98965.44;;;2.57;100.00
4024;BME280;2026;51.002;13.668;2023-04-02T07:19:30;98966.56;;;2.88;100.00
4024;BME280;2026;51.002;13.668;2023-04-02T07:24:35;98971.09;;;2.69;100.00
4024;BME280;2026;51.002;13.668;2023-04-02T07:29:38;98984.69;;;2.71;100.00
4024;BME280;2026;51.002;13.668;2023-04-02T07:34:43;98999.88;;;2.33;100.00
4024;BME280;2026;51.002;13.668;2023-04-02T07:39:47;99005.72;;;2.52;100.00
4024;BME280;2026;51.002;13.668;2023-04-02T07:44:50;99013.13;;;2.46;100.00
4024;BME280;2026;51.002;13.668;2023-04-02T07:49:53;99017.66;;;2.44;100.00
4024;BME280;2026;51.002;13.668;2023-04-02T07:54:58;99039.97;;;2.37;100.00
4024;BME280;2026;51.002;13.668;2023-04-02T08:00:03;99043.38;;;2.29;100.00
4024;BME280;2026;51.002;13.668;2023-04-02T08:05:27;99055.88;;;2.50;100.00
4024;BME280;2026;51.002;13.668;2023-04-02T08:10:32;99054.53;;;2.46;100.00
4024;BME280;2026;51.002;13.668;2023-04-02T08:15:35;99069.44;;;2.53;100.00
4024;BME280;2026;51.002;13.668;2023-04-02T08:20:38;99078.81;;;2.45;100.00
4024;BME280;2026;51.002;13.668;2023-04-02T08:25:43;99086.81;;;2.77;100.00
4024;BME280;2026;51.002;13.668;2023-04-02T08:30:46;99090.78;;;2.55;100.00
4024;BME280;2026;51.002;13.668;2023-04-02T08:35:50;99095.84;;;2.73;99.97
4024;BME280;2026;51.002;13.668;2023-04-02T08:40:58;99104.13;;;3.01;100.00
4024;BME280;2026;51.002;13.668;2023-04-02T08:46:09;99121.63;;;2.91;99.50
4024;BME280;2026;51.002;13.668;2023-04-02T08:51:21;99121.22;;;2.53;97.57
4024;BME280;2026;51.002;13.668;2023-04-02T08:56:30;99127.88;;;2.72;97.64
4024;BME280;2026;51.002;13.668;2023-04-02T09:01:42;99133.25;;;2.78;95.75
4024;BME280;2026;51.002;13.668;2023-04-02T09:06:49;99143.97;;;3.00;93.64
4024;BME280;2026;51.002;13.668;2023-04-02T09:11:56;99156.03;;;2.75;93.33
4024;BME280;2026;51.002;13.668;2023-04-02T09:17:02;99157.53;;;2.94;93.69
4024;BME280;2026;51.002;13.668;2023-04-02T09:22:08;99169.25;;;3.15;91.41
4024;BME280;2026;51.002;13.668;2023-04-02T09:27:19;99173.75;;;2.96;92.10
4024;BME280;2026;51.002;13.668;2023-04-02T09:32:47;99181.56;;;3.38;91.14
4024;BME280;2026;51.002;13.668;2023-04-02T09:38:10;99205.47;;;2.98;92.52
4024;BME280;2026;51.002;13.668;2023-04-02T09:43:20;99209.72;;;3.08;95.85
4024;BME280;2026;51.002;13.668;2023-04-02T09:48:25;99214.16;;;2.72;96.07
4024;BME280;2026;51.002;13.668;2023-04-02T09:53:33;99225.91;;;2.67;97.43
4024;BME280;2026;51.002;13.668;2023-04-02T09:58:38;99230.25;;;2.49;96.11
4024;BME280;2026;51.002;13.668;2023-04-02T10:03:42;99248.78;;;2.80;95.43
4024;BME280;2026;51.002;13.668;2023-04-02T10:08:45;99253.81;;;2.81;96.09
4024;BME280;2026;51.002;13.668;2023-04-02T10:13:51;99260.41;;;2.67;95.17
4024;BME280;2026;51.002;13.668;2023-04-02T10:18:56;99275.44;;;2.63;95.69
4024;BME280;2026;51.002;13.668;2023-04-02T10:24:00;99267.63;;;2.90;93.27
4024;BME280;2026;51.002;13.668;2023-04-02T10:29:25;99284.88;;;3.24;93.37
4024;BME280;2026;51.002;13.668;2023-04-02T10:34:35;99291.34;;;3.12;94.58
4024;BME280;2026;51.002;13.668;2023-04-02T10:39:46;99305.09;;;3.12;91.95
4024;BME280;2026;51.002;13.668;2023-04-02T10:45:00;99309.84;;;3.33;93.20
4024;BME280;2026;51.002;13.668;2023-04-02T10:50:22;99306.38;;;3.08;91.92
4024;BME280;2026;51.002;13.668;2023-04-02T10:55:32;99316.06;;;3.57;91.28
4024;BME280;2026;51.002;13.668;2023-04-02T11:00:43;99329.50;;;3.53;90.65
4024;BME280;2026;51.002;13.668;2023-04-02T11:05:49;99334.88;;;3.68;89.95
4024;BME280;2026;51.002;13.668;2023-04-02T11:10:58;99341.88;;;3.24;90.98
4024;BME280;2026;51.002;13.668;2023-04-02T11:16:06;99343.59;;;3.50;90.08
4024;BME280;2026;51.002;13.668;2023-04-02T11:21:37;99358.59;;;3.30;91.03
4024;BME280;2026;51.002;13.668;2023-04-02T11:27:12;99366.13;;;3.50;90.22
4024;BME280;2026;51.002;13.668;2023-04-02T11:32:30;99372.72;;;3.36;91.04
4024;BME280;2026;51.002;13.668;2023-04-02T11:37:37;99372.78;;;3.60;91.46
4024;BME280;2026;51.002;13.668;2023-04-02T11:42:41;99378.31;;;3.66;91.56
4024;BME280;2026;51.002;13.668;2023-04-02T11:48:25;99386.44;;;3.71;90.94
4024;BME280;2026;51.002;13.668;2023-04-02T11:53:32;99387.44;;;3.95;89.38
4024;BME280;2026;51.002;13.668;2023-04-02T11:58:45;99392.19;;;3.48;90.49
4024;BME280;2026;51.002;13.668;2023-04-02T12:04:04;99400.78;;;3.49;90.36
4024;BME280;2026;51.002;13.668;2023-04-02T12:09:18;99406.03;;;3.65;90.60
4024;BME280;2026;51.002;13.668;2023-04-02T12:14:40;99409.25;;;3.67;90.20
4024;BME280;2026;51.002;13.668;2023-04-02T12:19:48;99417.56;;;3.79;88.64
4024;BME280;2026;51.002;13.668;2023-04-02T12:24:55;99427.69;;;4.07;85.20
4024;BME280;2026;51.002;13.668;2023-04-02T12:30:11;99426.34;;;3.95;85.70
4024;BME280;2026;51.002;13.668;2023-04-02T12:35:26;99440.50;;;4.09;85.10
4024;BME280;2026;51.002;13.668;2023-04-02T12:40:29;99443.63;;;4.29;84.42
4024;BME280;2026;51.002;13.668;2023-04-02T12:45:33;99445.41;;;4.28;83.46
4024;BME280;2026;51.002;13.668;2023-04-02T12:50:38;99447.34;;;4.60;82.66
4024;BME280;2026;51.002;13.668;2023-04-02T12:55:45;99447.34;;;4.60;81.67
4024;BME280;2026;51.002;13.668;2023-04-02T13:00:48;99447.50;;;4.41;82.00
4024;BME280;2026;51.002;13.668;2023-04-02T13:05:54;99459.50;;;4.51;84.32
4024;BME280;2026;51.002;13.668;2023-04-02T13:10:59;99467.00;;;4.54;81.46
4024;BME280;2026;51.002;13.668;2023-04-02T13:16:06;99469.41;;;4.55;81.14
4024;BME280;2026;51.002;13.668;2023-04-02T13:21:24;99473.16;;;4.69;79.87
4024;BME280;2026;51.002;13.668;2023-04-02T13:26:29;99467.97;;;4.86;78.76
4024;BME280;2026;51.002;13.668;2023-04-02T13:31:32;99489.56;;;4.62;81.70
4024;BME280;2026;51.002;13.668;2023-04-02T13:36:36;99488.56;;;4.38;81.41
4024;BME280;2026;51.002;13.668;2023-04-02T13:41:41;99498.66;;;4.57;81.33
4024;BME280;2026;51.002;13.668;2023-04-02T13:46:45;99512.13;;;4.45;81.92
4024;BME280;2026;51.002;13.668;2023-04-02T13:51:50;99507.72;;;4.37;82.24
4024;BME280;2026;51.002;13.668;2023-04-02T13:56:54;99523.56;;;4.17;81.46
4024;BME280;2026;51.002;13.668;2023-04-02T14:02:01;99521.03;;;4.34;81.43
4024;BME280;2026;51.002;13.668;2023-04-02T14:07:32;99526.03;;;4.35;80.95
4024;BME280;2026;51.002;13.668;2023-04-02T14:12:47;99534.88;;;4.08;82.17
4024;BME280;2026;51.002;13.668;2023-04-02T14:18:07;99545.47;;;4.23;81.57
4024;BME280;2026;51.002;13.668;2023-04-02T14:23:24;99560.81;;;4.08;82.02
4024;BME280;2026;51.002;13.668;2023-04-02T14:28:38;99553.00;;;3.99;83.39
4024;BME280;2026;51.002;13.668;2023-04-02T14:33:51;99561.69;;;4.25;82.79
4024;BME280;2026;51.002;13.668;2023-04-02T14:39:07;99564.50;;;3.97;81.96
4024;BME280;2026;51.002;13.668;2023-04-02T14:44:14;99565.28;;;4.24;82.61
4024;BME280;2026;51.002;13.668;2023-04-02T14:49:23;99567.88;;;4.24;82.30
4024;BME280;2026;51.002;13.668;2023-04-02T14:54:33;99567.28;;;4.38;81.03
4024;BME280;2026;51.002;13.668;2023-04-02T14:59:44;99582.66;;;4.32;82.40
4024;BME280;2026;51.002;13.668;2023-04-02T15:04:57;99587.81;;;3.88;80.39
4024;BME280;2026;51.002;13.668;2023-04-02T15:10:07;99585.94;;;3.99;80.02
4024;BME280;2026;51.002;13.668;2023-04-02T15:15:22;99587.75;;;4.07;78.67
4024;BME280;2026;51.002;13.668;2023-04-02T15:20:47;99592.59;;;4.01;79.38
4024;BME280;2026;51.002;13.668;2023-04-02T15:26:02;99592.78;;;4.08;79.34
4024;BME280;2026;51.002;13.668;2023-04-02T15:31:11;99602.72;;;4.21;78.68
4024;BME280;2026;51.002;13.668;2023-04-02T15:36:28;99608.00;;;4.03;79.40
4024;BME280;2026;51.002;13.668;2023-04-02T15:41:39;99607.22;;;4.03;79.43
4024;BME280;2026;51.002;13.668;2023-04-02T15:46:48;99614.56;;;4.15;79.46
4024;BME280;2026;51.002;13.668;2023-04-02T15:52:04;99617.56;;;4.37;79.55
4024;BME280;2026;51.002;13.668;2023-04-02T15:57:19;99616.09;;;4.35;79.88
4024;BME280;2026;51.002;13.668;2023-04-02T16:02:40;99637.34;;;4.30;79.57
4024;BME280;2026;51.002;13.668;2023-04-02T16:08:01;99643.66;;;4.27;80.22
4024;BME280;2026;51.002;13.668;2023-04-02T16:13:15;99643.81;;;4.34;80.19
4024;BME280;2026;51.002;13.668;2023-04-02T16:18:29;99641.97;;;4.53;78.59
4024;BME280;2026;51.002;13.668;2023-04-02T16:23:36;99649.47;;;4.21;80.00
4024;BME280;2026;51.002;13.668;2023-04-02T16:28:45;99664.34;;;4.11;79.79
4024;BME280;2026;51.002;13.668;2023-04-02T16:33:57;99663.59;;;4.27;80.13
4024;BME280;2026;51.002;13.668;2023-04-02T16:39:09;99671.72;;;4.32;80.42
4024;BME280;2026;51.002;13.668;2023-04-02T16:44:23;99675.91;;;4.25;80.35
4024;BME280;2026;51.002;13.668;2023-04-02T16:49:35;99684.94;;;4.47;79.94
4024;BME280;2026;51.002;13.668;2023-04-02T16:54:45;99687.91;;;4.26;80.95
4024;BME280;2026;51.002;13.668;2023-04-02T16:59:58;99686.91;;;4.19;80.49
4024;BME280;2026;51.002;13.668;2023-04-02T17:05:10;99695.38;;;4.21;81.64
4024;BME280;2026;51.002;13.668;2023-04-02T17:10:24;99703.50;;;4.26;81.40
4024;BME280;2026;51.002;13.668;2023-04-02T17:15:37;99711.75;;;4.21;81.78
4024;BME280;2026;51.002;13.668;2023-04-02T17:20:41;99715.50;;;4.27;82.06
4024;BME280;2026;51.002;13.668;2023-04-02T17:25:47;99721.88;;;4.06;82.69
4024;BME280;2026;51.002;13.668;2023-04-02T17:30:56;99727.22;;;4.05;82.58
4024;BME280;2026;51.002;13.668;2023-04-02T17:36:19;99728.06;;;4.05;83.02
4024;BME280;2026;51.002;13.668;2023-04-02T17:41:31;99730.53;;;4.15;83.41
4024;BME280;2026;51.002;13.668;2023-04-02T17:46:42;99735.63;;;4.25;84.17
4024;BME280;2026;51.002;13.668;2023-04-02T17:51:50;99735.53;;;4.08;83.25
4024;BME280;2026;51.002;13.668;2023-04-02T18:02:49;99748.75;;;4.23;84.44
4024;BME280;2026;51.002;13.668;2023-04-02T18:08:07;99742.47;;;4.34;83.46
4024;BME280;2026;51.002;13.668;2023-04-02T18:13:22;99762.06;;;4.02;83.61
4024;BME280;2026;51.002;13.668;2023-04-02T18:18:43;99764.59;;;3.94;85.11
4024;BME280;2026;51.002;13.668;2023-04-02T18:24:04;99767.91;;;4.04;84.15
4024;BME280;2026;51.002;13.668;2023-04-02T18:29:21;99768.09;;;4.03;83.27
4024;BME280;2026;51.002;13.668;2023-04-02T18:34:41;99778.22;;;4.14;84.03
4024;BME280;2026;51.002;13.668;2023-04-02T18:39:58;99789.81;;;4.28;84.14
4024;BME280;2026;51.002;13.668;2023-04-02T18:45:10;99801.44;;;4.42;83.73
4024;BME280;2026;51.002;13.668;2023-04-02T18:50:23;99805.81;;;4.41;83.33
4024;BME280;2026;51.002;13.668;2023-04-02T18:55:27;99817.22;;;4.49;84.02
4024;BME280;2026;51.002;13.668;2023-04-02T19:00:33;99820.69;;;4.57;84.26
4024;BME280;2026;51.002;13.668;2023-04-02T19:05:43;99823.34;;;4.66;84.68
4024;BME280;2026;51.002;13.668;2023-04-02T19:10:52;99826.53;;;4.60;84.60
4024;BME280;2026;51.002;13.668;2023-04-02T19:16:14;99828.03;;;4.62;84.33
4024;BME280;2026;51.002;13.668;2023-04-02T19:21:31;99835.66;;;4.64;85.00
4024;BME280;2026;51.002;13.668;2023-04-02T19:26:40;99841.06;;;4.70;84.42
4024;BME280;2026;51.002;13.668;2023-04-02T19:31:54;99850.56;;;4.62;84.54
4024;BME280;2026;51.002;13.668;2023-04-02T19:37:09;99847.19;;;4.61;85.05
4024;BME280;2026;51.002;13.668;2023-04-02T19:42:23;99851.91;;;4.66;85.09
4024;BME280;2026;51.002;13.668;2023-04-02T19:47:31;99864.44;;;4.70;84.96
4024;BME280;2026;51.002;13.668;2023-04-02T19:52:36;99854.97;;;4.61;84.35
4024;BME280;2026;51.002;13.668;2023-04-02T19:57:38;99857.41;;;4.63;84.75
4024;BME280;2026;51.002;13.668;2023-04-02T20:02:42;99869.31;;;4.74;84.26
4024;BME280;2026;51.002;13.668;2023-04-02T20:07:46;99865.69;;;4.66;85.13
4024;BME280;2026;51.002;13.668;2023-04-02T20:12:49;99858.78;;;4.75;85.11
4024;BME280;2026;51.002;13.668;2023-04-02T20:17:52;99873.69;;;4.47;84.00
4024;BME280;2026;51.002;13.668;2023-04-02T20:22:57;99872.72;;;4.48;83.23
4024;BME280;2026;51.002;13.668;2023-04-02T20:28:00;99874.81;;;4.26;84.38
4024;BME280;2026;51.002;13.668;2023-04-02T20:33:04;99882.97;;;3.95;84.31
4024;BME280;2026;51.002;13.668;2023-04-02T20:38:09;99881.81;;;3.89;84.93
4024;BME280;2026;51.002;13.668;2023-04-02T20:43:12;99888.56;;;4.00;84.67
4024;BME280;2026;51.002;13.668;2023-04-02T20:48:15;99895.34;;;3.83;83.59
4024;BME280;2026;51.002;13.668;2023-04-02T20:53:19;99907.69;;;3.99;83.92
4024;BME280;2026;51.002;13.668;2023-04-02T20:58:22;99906.06;;;3.98;83.95
4024;BME280;2026;51.002;13.668;2023-04-02T21:03:25;99907.75;;;4.07;82.48
4024;BME280;2026;51.002;13.668;2023-04-02T21:08:29;99917.47;;;3.87;83.96
4024;BME280;2026;51.002;13.668;2023-04-02T21:13:33;99917.81;;;3.74;83.66
4024;BME280;2026;51.002;13.668;2023-04-02T21:18:37;99927.84;;;3.87;83.01
4024;BME280;2026;51.002;13.668;2023-04-02T21:23:42;99922.13;;;3.83;82.53
4024;BME280;2026;51.002;13.668;2023-04-02T21:28:46;99921.81;;;3.86;81.48
4024;BME280;2026;51.002;13.668;2023-04-02T21:33:50;99928.59;;;3.69;81.99
4024;BME280;2026;51.002;13.668;2023-04-02T21:38:57;99929.03;;;3.65;81.94
4024;BME280;2026;51.002;13.668;2023-04-02T21:44:01;99930.34;;;3.79;81.83
4024;BME280;2026;51.002;13.668;2023-04-02T21:49:05;99938.84;;;3.71;80.67
4024;BME280;2026;51.002;13.668;2023-04-02T21:54:10;99938.88;;;3.61;81.53
4024;BME280;2026;51.002;13.668;2023-04-02T21:59:14;99948.16;;;3.64;81.09
4024;BME280;2026;51.002;13.668;2023-04-02T22:04:19;99950.75;;;3.64;81.62
4024;BME280;2026;51.002;13.668;2023-04-02T22:09:24;99963.72;;;3.64;79.75
4024;BME280;2026;51.002;13.668;2023-04-02T22:14:28;99959.88;;;3.68;80.04
4024;BME280;2026;51.002;13.668;2023-04-02T22:19:31;99966.09;;;3.47;80.63
4024;BME280;2026;51.002;13.668;2023-04-02T22:24:36;99969.97;;;3.43;81.30
4024;BME280;2026;51.002;13.668;2023-04-02T22:29:39;99962.19;;;3.43;80.60
4024;BME280;2026;51.002;13.668;2023-04-02T22:34:41;99973.44;;;3.24;80.16
4024;BME280;2026;51.002;13.668;2023-04-02T22:39:47;99977.78;;;3.23;80.70
4024;BME280;2026;51.002;13.668;2023-04-02T22:44:50;99984.72;;;3.23;81.32
4024;BME280;2026;51.002;13.668;2023-04-02T22:49:53;99988.16;;;3.23;81.34
4024;BME280;2026;51.002;13.668;2023-04-02T22:54:57;99991.56;;;3.24;80.76
4024;BME280;2026;51.002;13.668;2023-04-02T23:00:01;99995.97;;;3.03;80.60
4024;BME280;2026;51.002;13.668;2023-04-02T23:05:06;100005.34;;;3.14;79.42
4024;BME280;2026;51.002;13.668;2023-04-02T23:10:11;100009.47;;;2.87;80.21
4024;BME280;2026;51.002;13.668;2023-04-02T23:15:14;100006.75;;;2.89;79.03
4024;BME280;2026;51.002;13.668;2023-04-02T23:20:17;100009.34;;;2.89;78.74
4024;BME280;2026;51.002;13.668;2023-04-02T23:25:22;100018.88;;;3.08;79.05
4024;BME280;2026;51.002;13.668;2023-04-02T23:30:25;100020.50;;;3.19;76.82
4024;BME280;2026;51.002;13.668;2023-04-02T23:35:27;100018.63;;;2.82;77.89
4024;BME280;2026;51.002;13.668;2023-04-02T23:40:32;100012.19;;;2.86;78.49
4024;BME280;2026;51.002;13.668;2023-04-02T23:45:35;100022.81;;;2.63;78.20
4024;BME280;2026;51.002;13.668;2023-04-02T23:50:38;100019.03;;;2.77;78.64
4024;BME280;2026;51.002;13.668;2023-04-02T23:55:43;100021.72;;;2.95;76.11
